sensor_id;sensor_type;location;lat;lon;timestamp;P1;durP1;ratioP1;P2;durP2;ratioP2
40449;SDS011;41787;53.570;10.032;2023-02-01T00:01:54;18.50;;;3.65;;
40449;SDS011;41787;53.570;10.032;2023-02-01T00:04:20;21.05;;;5.53;;
40449;SDS011;41787;53.570;10.032;2023-02-01T00:06:46;26.13;;;4.32;;
40449;SDS011;41787;53.570;10.032;2023-02-01T00:09:12;14.73;;;3.30;;
40449;SDS011;41787;53.570;10.032;2023-02-01T00:11:38;28.95;;;4.25;;
40449;SDS011;41787;53.570;10.032;2023-02-01T00:14:04;40.15;;;6.28;;
40449;SDS011;41787;53.570;10.032;2023-02-01T00:16:30;19.55;;;3.78;;
40449;SDS011;41787;53.570;10.032;2023-02-01T00:19:06;26.08;;;3.47;;
40449;SDS011;41787;53.570;10.032;2023-02-01T00:21:32;29.48;;;3.95;;
40449;SDS011;41787;53.570;10.032;2023-02-01T00:23:59;28.40;;;3.83;;
40449;SDS011;41787;53.570;10.032;2023-02-01T00:28:56;22.38;;;4.43;;
40449;SDS011;41787;53.570;10.032;2023-02-01T00:31:22;21.00;;;3.03;;
40449;SDS011;41787;53.570;10.032;2023-02-01T00:33:48;26.80;;;4.00;;
40449;SDS011;41787;53.570;10.032;2023-02-01T00:36:15;30.15;;;4.75;;
40449;SDS011;41787;53.570;10.032;2023-02-01T00:38:41;24.50;;;3.85;;
40449;SDS011;41787;53.570;10.032;2023-02-01T00:41:08;23.88;;;3.65;;
40449;SDS011;41787;53.570;10.032;2023-02-01T00:43:35;15.00;;;3.33;;
40449;SDS011;41787;53.570;10.032;2023-02-01T00:46:01;32.83;;;6.95;;
40449;SDS011;41787;53.570;10.032;2023-02-01T00:48:27;14.50;;;2.40;;
40449;SDS011;41787;53.570;10.032;2023-02-01T00:50:52;28.35;;;3.80;;
40449;SDS011;41787;53.570;10.032;2023-02-01T00:53:18;30.27;;;4.70;;
40449;SDS011;41787;53.570;10.032;2023-02-01T00:55:48;36.10;;;5.38;;
40449;SDS011;41787;53.570;10.032;2023-02-01T00:58:14;12.27;;;4.03;;
40449;SDS011;41787;53.570;10.032;2023-02-01T01:00:40;22.35;;;4.65;;
40449;SDS011;41787;53.570;10.032;2023-02-01T01:03:06;31.70;;;7.97;;
40449;SDS011;41787;53.570;10.032;2023-02-01T01:05:45;44.15;;;5.75;;
40449;SDS011;41787;53.570;10.032;2023-02-01T01:08:12;37.10;;;4.78;;
40449;SDS011;41787;53.570;10.032;2023-02-01T01:10:38;29.83;;;4.38;;
40449;SDS011;41787;53.570;10.032;2023-02-01T01:13:04;26.75;;;4.50;;
40449;SDS011;41787;53.570;10.032;2023-02-01T01:15:30;14.18;;;2.67;;
40449;SDS011;41787;53.570;10.032;2023-02-01T01:17:56;29.60;;;5.70;;
40449;SDS011;41787;53.570;10.032;2023-02-01T01:20:22;21.77;;;4.53;;
40449;SDS011;41787;53.570;10.032;2023-02-01T01:22:48;34.17;;;4.95;;
40449;SDS011;41787;53.570;10.032;2023-02-01T01:25:14;27.40;;;4.32;;
40449;SDS011;41787;53.570;10.032;2023-02-01T01:27:40;33.60;;;4.85;;
40449;SDS011;41787;53.570;10.032;2023-02-01T01:30:06;27.60;;;4.35;;
40449;SDS011;41787;53.570;10.032;2023-02-01T01:32:32;30.42;;;5.80;;
40449;SDS011;41787;53.570;10.032;2023-02-01T01:34:58;18.83;;;3.15;;
40449;SDS011;41787;53.570;10.032;2023-02-01T01:37:24;29.50;;;4.45;;
40449;SDS011;41787;53.570;10.032;2023-02-01T01:39:50;22.55;;;5.07;;
40449;SDS011;41787;53.570;10.032;2023-02-01T01:42:16;37.67;;;5.97;;
40449;SDS011;41787;53.570;10.032;2023-02-01T01:47:29;33.45;;;6.05;;
40449;SDS011;41787;53.570;10.032;2023-02-01T01:49:56;35.03;;;5.80;;
40449;SDS011;41787;53.570;10.032;2023-02-01T01:52:22;24.10;;;4.03;;
40449;SDS011;41787;53.570;10.032;2023-02-01T01:54:50;36.10;;;5.10;;
40449;SDS011;41787;53.570;10.032;2023-02-01T01:57:18;37.83;;;5.07;;
40449;SDS011;41787;53.570;10.032;2023-02-01T01:59:50;28.73;;;4.22;;
40449;SDS011;41787;53.570;10.032;2023-02-01T02:02:18;35.83;;;5.40;;
40449;SDS011;41787;53.570;10.032;2023-02-01T02:04:44;24.98;;;3.80;;
40449;SDS011;41787;53.570;10.032;2023-02-01T02:07:12;35.38;;;5.35;;
40449;SDS011;41787;53.570;10.032;2023-02-01T02:09:39;35.83;;;5.72;;
40449;SDS011;41787;53.570;10.032;2023-02-01T02:12:07;22.73;;;4.10;;
40449;SDS011;41787;53.570;10.032;2023-02-01T02:14:33;40.97;;;6.97;;
40449;SDS011;41787;53.570;10.032;2023-02-01T02:19:32;21.83;;;4.90;;
40449;SDS011;41787;53.570;10.032;2023-02-01T02:22:20;30.02;;;5.32;;
40449;SDS011;41787;53.570;10.032;2023-02-01T02:33:03;40.78;;;5.03;;
40449;SDS011;41787;53.570;10.032;2023-02-01T02:41:02;34.78;;;4.90;;
40449;SDS011;41787;53.570;10.032;2023-02-01T02:43:46;29.42;;;5.55;;
40449;SDS011;41787;53.570;10.032;2023-02-01T02:46:40;30.70;;;5.40;;
40449;SDS011;41787;53.570;10.032;2023-02-01T02:49:34;27.92;;;4.85;;
40449;SDS011;41787;53.570;10.032;2023-02-01T02:52:12;32.13;;;5.30;;
40449;SDS011;41787;53.570;10.032;2023-02-01T02:54:59;27.60;;;3.65;;
40449;SDS011;41787;53.570;10.032;2023-02-01T02:57:30;33.97;;;4.88;;
40449;SDS011;41787;53.570;10.032;2023-02-01T03:00:21;25.25;;;3.97;;
40449;SDS011;41787;53.570;10.032;2023-02-01T03:03:06;35.10;;;4.57;;
40449;SDS011;41787;53.570;10.032;2023-02-01T03:05:51;28.20;;;5.55;;
40449;SDS011;41787;53.570;10.032;2023-02-01T03:08:21;28.52;;;5.50;;
40449;SDS011;41787;53.570;10.032;2023-02-01T03:10:49;24.20;;;4.28;;
40449;SDS011;41787;53.570;10.032;2023-02-01T03:15:49;28.33;;;4.60;;
40449;SDS011;41787;53.570;10.032;2023-02-01T03:18:19;22.55;;;4.80;;
40449;SDS011;41787;53.570;10.032;2023-02-01T03:20:46;32.22;;;5.32;;
40449;SDS011;41787;53.570;10.032;2023-02-01T03:23:13;25.40;;;4.63;;
40449;SDS011;41787;53.570;10.032;2023-02-01T03:25:40;32.58;;;4.05;;
40449;SDS011;41787;53.570;10.032;2023-02-01T03:28:08;22.58;;;4.40;;
40449;SDS011;41787;53.570;10.032;2023-02-01T03:30:35;30.42;;;3.67;;
40449;SDS011;41787;53.570;10.032;2023-02-01T03:33:03;30.52;;;4.68;;
40449;SDS011;41787;53.570;10.032;2023-02-01T03:35:45;20.88;;;3.75;;
40449;SDS011;41787;53.570;10.032;2023-02-01T03:41:03;23.98;;;2.75;;
40449;SDS011;41787;53.570;10.032;2023-02-01T03:43:34;16.98;;;2.33;;
40449;SDS011;41787;53.570;10.032;2023-02-01T03:46:02;25.98;;;2.88;;
40449;SDS011;41787;53.570;10.032;2023-02-01T03:48:30;23.42;;;3.42;;
40449;SDS011;41787;53.570;10.032;2023-02-01T03:50:56;19.45;;;3.20;;
40449;SDS011;41787;53.570;10.032;2023-02-01T03:53:23;20.65;;;3.42;;
40449;SDS011;41787;53.570;10.032;2023-02-01T03:55:51;16.63;;;2.90;;
40449;SDS011;41787;53.570;10.032;2023-02-01T03:58:18;15.27;;;3.75;;
40449;SDS011;41787;53.570;10.032;2023-02-01T04:00:46;15.45;;;2.53;;
40449;SDS011;41787;53.570;10.032;2023-02-01T04:03:16;11.57;;;2.50;;
40449;SDS011;41787;53.570;10.032;2023-02-01T04:05:41;22.25;;;3.35;;
40449;SDS011;41787;53.570;10.032;2023-02-01T04:08:07;21.92;;;3.58;;
40449;SDS011;41787;53.570;10.032;2023-02-01T04:10:33;17.23;;;2.42;;
40449;SDS011;41787;53.570;10.032;2023-02-01T04:12:59;24.98;;;3.25;;
40449;SDS011;41787;53.570;10.032;2023-02-01T04:15:25;29.13;;;3.58;;
40449;SDS011;41787;53.570;10.032;2023-02-01T04:17:51;25.77;;;3.78;;
40449;SDS011;41787;53.570;10.032;2023-02-01T04:20:17;34.22;;;4.85;;
40449;SDS011;41787;53.570;10.032;2023-02-01T04:22:43;11.90;;;2.83;;
40449;SDS011;41787;53.570;10.032;2023-02-01T04:25:09;17.30;;;2.97;;
40449;SDS011;41787;53.570;10.032;2023-02-01T04:27:35;18.55;;;4.32;;
40449;SDS011;41787;53.570;10.032;2023-02-01T04:30:02;15.60;;;2.60;;
40449;SDS011;41787;53.570;10.032;2023-02-01T04:32:28;17.60;;;3.65;;
40449;SDS011;41787;53.570;10.032;2023-02-01T04:34:53;22.60;;;3.22;;
40449;SDS011;41787;53.570;10.032;2023-02-01T04:37:19;27.20;;;3.22;;
40449;SDS011;41787;53.570;10.032;2023-02-01T04:39:45;9.75;;;3.00;;
40449;SDS011;41787;53.570;10.032;2023-02-01T04:42:11;8.75;;;1.83;;
40449;SDS011;41787;53.570;10.032;2023-02-01T04:44:37;15.18;;;2.08;;
40449;SDS011;41787;53.570;10.032;2023-02-01T04:47:06;20.88;;;2.45;;
40449;SDS011;41787;53.570;10.032;2023-02-01T04:49:32;22.25;;;3.25;;
40449;SDS011;41787;53.570;10.032;2023-02-01T04:51:58;10.73;;;2.38;;
40449;SDS011;41787;53.570;10.032;2023-02-01T04:54:24;8.18;;;1.50;;
40449;SDS011;41787;53.570;10.032;2023-02-01T04:56:50;15.38;;;2.83;;
40449;SDS011;41787;53.570;10.032;2023-02-01T04:59:16;15.82;;;2.15;;
40449;SDS011;41787;53.570;10.032;2023-02-01T05:01:42;16.08;;;2.53;;
40449;SDS011;41787;53.570;10.032;2023-02-01T05:04:08;13.60;;;1.88;;
40449;SDS011;41787;53.570;10.032;2023-02-01T05:06:34;7.45;;;1.80;;
40449;SDS011;41787;53.570;10.032;2023-02-01T05:09:00;3.90;;;1.27;;
40449;SDS011;41787;53.570;10.032;2023-02-01T05:11:26;6.00;;;1.23;;
40449;SDS011;41787;53.570;10.032;2023-02-01T05:14:10;4.80;;;1.38;;
40449;SDS011;41787;53.570;10.032;2023-02-01T05:16:36;4.13;;;1.13;;
40449;SDS011;41787;53.570;10.032;2023-02-01T05:19:02;6.13;;;1.00;;
40449;SDS011;41787;53.570;10.032;2023-02-01T05:21:28;3.08;;;0.75;;
40449;SDS011;41787;53.570;10.032;2023-02-01T05:23:54;4.18;;;0.80;;
40449;SDS011;41787;53.570;10.032;2023-02-01T05:26:37;1.27;;;0.65;;
40449;SDS011;41787;53.570;10.032;2023-02-01T05:29:04;10.52;;;1.70;;
40449;SDS011;41787;53.570;10.032;2023-02-01T05:31:30;3.17;;;0.93;;
40449;SDS011;41787;53.570;10.032;2023-02-01T05:33:56;2.97;;;0.70;;
40449;SDS011;41787;53.570;10.032;2023-02-01T05:36:22;2.88;;;0.93;;
40449;SDS011;41787;53.570;10.032;2023-02-01T05:38:48;2.15;;;0.70;;
40449;SDS011;41787;53.570;10.032;2023-02-01T05:41:14;0.88;;;0.47;;
40449;SDS011;41787;53.570;10.032;2023-02-01T05:43:40;3.22;;;0.90;;
40449;SDS011;41787;53.570;10.032;2023-02-01T05:46:06;7.55;;;1.30;;
40449;SDS011;41787;53.570;10.032;2023-02-01T05:48:32;2.78;;;0.50;;
40449;SDS011;41787;53.570;10.032;2023-02-01T05:50:58;1.23;;;0.60;;
40449;SDS011;41787;53.570;10.032;2023-02-01T05:53:23;2.42;;;0.57;;
40449;SDS011;41787;53.570;10.032;2023-02-01T05:55:49;2.28;;;0.93;;
40449;SDS011;41787;53.570;10.032;2023-02-01T05:58:15;2.50;;;0.85;;
40449;SDS011;41787;53.570;10.032;2023-02-01T06:00:41;3.80;;;0.90;;
40449;SDS011;41787;53.570;10.032;2023-02-01T06:03:07;3.65;;;0.80;;
40449;SDS011;41787;53.570;10.032;2023-02-01T06:05:33;4.38;;;0.77;;
40449;SDS011;41787;53.570;10.032;2023-02-01T06:07:59;1.90;;;0.55;;
40449;SDS011;41787;53.570;10.032;2023-02-01T06:10:25;2.97;;;0.98;;
40449;SDS011;41787;53.570;10.032;2023-02-01T06:12:51;0.75;;;0.40;;
40449;SDS011;41787;53.570;10.032;2023-02-01T06:15:17;2.78;;;0.82;;
40449;SDS011;41787;53.570;10.032;2023-02-01T06:17:44;0.70;;;0.60;;
40449;SDS011;41787;53.570;10.032;2023-02-01T06:20:10;4.30;;;0.98;;
40449;SDS011;41787;53.570;10.032;2023-02-01T06:22:36;2.55;;;1.23;;
40449;SDS011;41787;53.570;10.032;2023-02-01T06:25:03;3.83;;;0.80;;
40449;SDS011;41787;53.570;10.032;2023-02-01T06:27:29;4.43;;;1.08;;
40449;SDS011;41787;53.570;10.032;2023-02-01T06:29:55;3.50;;;0.75;;
40449;SDS011;41787;53.570;10.032;2023-02-01T06:32:21;5.40;;;1.02;;
40449;SDS011;41787;53.570;10.032;2023-02-01T06:34:48;6.03;;;1.60;;
40449;SDS011;41787;53.570;10.032;2023-02-01T06:37:14;3.53;;;1.20;;
40449;SDS011;41787;53.570;10.032;2023-02-01T06:39:40;9.45;;;1.35;;
40449;SDS011;41787;53.570;10.032;2023-02-01T06:42:06;5.90;;;1.70;;
40449;SDS011;41787;53.570;10.032;2023-02-01T06:44:32;13.02;;;1.80;;
40449;SDS011;41787;53.570;10.032;2023-02-01T06:46:58;7.93;;;1.95;;
40449;SDS011;41787;53.570;10.032;2023-02-01T06:49:24;12.00;;;2.10;;
40449;SDS011;41787;53.570;10.032;2023-02-01T06:51:50;15.82;;;2.45;;
40449;SDS011;41787;53.570;10.032;2023-02-01T06:54:16;14.10;;;2.63;;
40449;SDS011;41787;53.570;10.032;2023-02-01T06:56:42;5.35;;;1.27;;
40449;SDS011;41787;53.570;10.032;2023-02-01T06:59:08;10.48;;;2.13;;
40449;SDS011;41787;53.570;10.032;2023-02-01T07:01:33;18.73;;;2.03;;
40449;SDS011;41787;53.570;10.032;2023-02-01T07:03:59;18.83;;;2.65;;
40449;SDS011;41787;53.570;10.032;2023-02-01T07:06:25;21.77;;;2.20;;
40449;SDS011;41787;53.570;10.032;2023-02-01T07:08:51;10.48;;;2.20;;
40449;SDS011;41787;53.570;10.032;2023-02-01T07:11:20;11.53;;;2.27;;
40449;SDS011;41787;53.570;10.032;2023-02-01T07:13:47;18.25;;;3.22;;
40449;SDS011;41787;53.570;10.032;2023-02-01T07:16:14;16.13;;;2.15;;
40449;SDS011;41787;53.570;10.032;2023-02-01T07:18:40;16.60;;;3.05;;
40449;SDS011;41787;53.570;10.032;2023-02-01T07:21:06;10.50;;;1.95;;
40449;SDS011;41787;53.570;10.032;2023-02-01T07:23:32;25.92;;;3.33;;
40449;SDS011;41787;53.570;10.032;2023-02-01T07:25:59;14.57;;;2.78;;
40449;SDS011;41787;53.570;10.032;2023-02-01T07:28:25;14.38;;;2.88;;
40449;SDS011;41787;53.570;10.032;2023-02-01T07:30:52;8.52;;;2.00;;
40449;SDS011;41787;53.570;10.032;2023-02-01T07:33:18;25.73;;;4.68;;
40449;SDS011;41787;53.570;10.032;2023-02-01T07:35:45;24.65;;;4.32;;
40449;SDS011;41787;53.570;10.032;2023-02-01T07:38:11;35.60;;;3.85;;
40449;SDS011;41787;53.570;10.032;2023-02-01T07:40:37;13.65;;;2.15;;
40449;SDS011;41787;53.570;10.032;2023-02-01T07:43:03;10.30;;;2.83;;
40449;SDS011;41787;53.570;10.032;2023-02-01T07:45:30;17.50;;;3.22;;
40449;SDS011;41787;53.570;10.032;2023-02-01T07:47:57;18.35;;;1.98;;
40449;SDS011;41787;53.570;10.032;2023-02-01T07:50:23;25.77;;;3.08;;
40449;SDS011;41787;53.570;10.032;2023-02-01T07:52:48;34.15;;;4.53;;
40449;SDS011;41787;53.570;10.032;2023-02-01T07:55:14;25.95;;;3.65;;
40449;SDS011;41787;53.570;10.032;2023-02-01T07:57:40;28.63;;;3.65;;
40449;SDS011;41787;53.570;10.032;2023-02-01T08:00:07;33.97;;;5.45;;
40449;SDS011;41787;53.570;10.032;2023-02-01T08:02:52;37.97;;;5.50;;
40449;SDS011;41787;53.570;10.032;2023-02-01T08:05:18;27.95;;;4.45;;
40449;SDS011;41787;53.570;10.032;2023-02-01T08:07:44;31.63;;;4.85;;
40449;SDS011;41787;53.570;10.032;2023-02-01T08:10:14;30.13;;;5.85;;
40449;SDS011;41787;53.570;10.032;2023-02-01T08:12:42;34.63;;;4.53;;
40449;SDS011;41787;53.570;10.032;2023-02-01T08:17:38;29.67;;;5.28;;
40449;SDS011;41787;53.570;10.032;2023-02-01T08:20:04;28.45;;;4.03;;
40449;SDS011;41787;53.570;10.032;2023-02-01T08:22:33;31.48;;;4.78;;
40449;SDS011;41787;53.570;10.032;2023-02-01T08:24:59;36.03;;;4.78;;
40449;SDS011;41787;53.570;10.032;2023-02-01T08:27:26;37.53;;;4.57;;
40449;SDS011;41787;53.570;10.032;2023-02-01T08:29:52;24.83;;;3.65;;
40449;SDS011;41787;53.570;10.032;2023-02-01T08:32:21;27.02;;;3.53;;
40449;SDS011;41787;53.570;10.032;2023-02-01T08:34:47;34.90;;;4.80;;
40449;SDS011;41787;53.570;10.032;2023-02-01T08:37:13;30.38;;;4.75;;
40449;SDS011;41787;53.570;10.032;2023-02-01T08:39:41;23.50;;;4.50;;
40449;SDS011;41787;53.570;10.032;2023-02-01T08:42:09;19.65;;;4.13;;
40449;SDS011;41787;53.570;10.032;2023-02-01T08:44:54;20.17;;;3.38;;
40449;SDS011;41787;53.570;10.032;2023-02-01T08:47:20;13.25;;;2.83;;
40449;SDS011;41787;53.570;10.032;2023-02-01T08:49:46;18.83;;;3.28;;
40449;SDS011;41787;53.570;10.032;2023-02-01T08:52:12;25.48;;;3.42;;
40449;SDS011;41787;53.570;10.032;2023-02-01T08:54:38;24.88;;;4.43;;
40449;SDS011;41787;53.570;10.032;2023-02-01T08:57:06;19.85;;;3.28;;
40449;SDS011;41787;53.570;10.032;2023-02-01T08:59:32;16.50;;;2.97;;
40449;SDS011;41787;53.570;10.032;2023-02-01T09:01:58;20.92;;;3.65;;
40449;SDS011;41787;53.570;10.032;2023-02-01T09:04:24;15.38;;;3.20;;
40449;SDS011;41787;53.570;10.032;2023-02-01T09:06:50;36.53;;;5.25;;
40449;SDS011;41787;53.570;10.032;2023-02-01T09:09:16;22.88;;;4.47;;
40449;SDS011;41787;53.570;10.032;2023-02-01T09:11:42;27.88;;;3.50;;
40449;SDS011;41787;53.570;10.032;2023-02-01T09:14:08;29.35;;;3.92;;
40449;SDS011;41787;53.570;10.032;2023-02-01T09:16:34;27.63;;;4.13;;
40449;SDS011;41787;53.570;10.032;2023-02-01T09:19:00;29.33;;;5.57;;
40449;SDS011;41787;53.570;10.032;2023-02-01T09:21:26;27.13;;;3.22;;
40449;SDS011;41787;53.570;10.032;2023-02-01T09:23:52;25.98;;;4.10;;
40449;SDS011;41787;53.570;10.032;2023-02-01T09:26:18;19.85;;;3.40;;
40449;SDS011;41787;53.570;10.032;2023-02-01T09:28:44;17.17;;;2.25;;
40449;SDS011;41787;53.570;10.032;2023-02-01T09:31:10;19.23;;;4.30;;
40449;SDS011;41787;53.570;10.032;2023-02-01T09:33:35;38.08;;;3.63;;
40449;SDS011;41787;53.570;10.032;2023-02-01T09:36:03;34.70;;;4.43;;
40449;SDS011;41787;53.570;10.032;2023-02-01T09:38:29;25.25;;;3.92;;
40449;SDS011;41787;53.570;10.032;2023-02-01T09:40:55;20.52;;;2.97;;
40449;SDS011;41787;53.570;10.032;2023-02-01T09:48:38;20.17;;;4.28;;
40449;SDS011;41787;53.570;10.032;2023-02-01T09:51:07;27.63;;;3.20;;
40449;SDS011;41787;53.570;10.032;2023-02-01T09:53:44;23.98;;;3.85;;
40449;SDS011;41787;53.570;10.032;2023-02-01T09:56:14;29.98;;;5.65;;
40449;SDS011;41787;53.570;10.032;2023-02-01T09:58:41;20.73;;;4.05;;
40449;SDS011;41787;53.570;10.032;2023-02-01T10:01:10;24.30;;;4.18;;
40449;SDS011;41787;53.570;10.032;2023-02-01T10:03:40;22.65;;;4.00;;
40449;SDS011;41787;53.570;10.032;2023-02-01T10:08:35;31.08;;;4.43;;
40449;SDS011;41787;53.570;10.032;2023-02-01T10:11:13;19.67;;;3.83;;
40449;SDS011;41787;53.570;10.032;2023-02-01T10:13:45;23.58;;;3.65;;
40449;SDS011;41787;53.570;10.032;2023-02-01T10:16:26;15.32;;;2.88;;
40449;SDS011;41787;53.570;10.032;2023-02-01T10:26:37;10.18;;;2.40;;
40449;SDS011;41787;53.570;10.032;2023-02-01T10:29:04;28.00;;;3.30;;
40449;SDS011;41787;53.570;10.032;2023-02-01T10:31:35;17.98;;;3.03;;
40449;SDS011;41787;53.570;10.032;2023-02-01T10:37:00;15.43;;;2.38;;
40449;SDS011;41787;53.570;10.032;2023-02-01T10:39:26;23.55;;;3.60;;
40449;SDS011;41787;53.570;10.032;2023-02-01T10:41:52;22.73;;;4.10;;
40449;SDS011;41787;53.570;10.032;2023-02-01T10:44:22;17.00;;;3.35;;
40449;SDS011;41787;53.570;10.032;2023-02-01T10:46:49;32.25;;;4.28;;
40449;SDS011;41787;53.570;10.032;2023-02-01T10:49:38;18.55;;;3.00;;
40449;SDS011;41787;53.570;10.032;2023-02-01T10:52:11;19.63;;;3.55;;
40449;SDS011;41787;53.570;10.032;2023-02-01T10:54:38;22.27;;;4.70;;
40449;SDS011;41787;53.570;10.032;2023-02-01T10:57:10;13.50;;;2.50;;
40449;SDS011;41787;53.570;10.032;2023-02-01T10:59:37;19.35;;;3.38;;
40449;SDS011;41787;53.570;10.032;2023-02-01T11:02:15;22.02;;;3.80;;
40449;SDS011;41787;53.570;10.032;2023-02-01T11:04:41;22.92;;;4.10;;
40449;SDS011;41787;53.570;10.032;2023-02-01T11:07:23;27.35;;;4.15;;
40449;SDS011;41787;53.570;10.032;2023-02-01T11:09:51;20.02;;;4.03;;
40449;SDS011;41787;53.570;10.032;2023-02-01T11:12:22;31.70;;;4.28;;
40449;SDS011;41787;53.570;10.032;2023-02-01T11:14:49;13.70;;;2.63;;
40449;SDS011;41787;53.570;10.032;2023-02-01T11:17:17;27.45;;;3.42;;
40449;SDS011;41787;53.570;10.032;2023-02-01T11:19:56;27.35;;;3.88;;
40449;SDS011;41787;53.570;10.032;2023-02-01T11:22:23;16.40;;;2.50;;
40449;SDS011;41787;53.570;10.032;2023-02-01T11:24:49;19.33;;;3.40;;
40449;SDS011;41787;53.570;10.032;2023-02-01T11:27:17;22.42;;;4.18;;
40449;SDS011;41787;53.570;10.032;2023-02-01T11:29:45;22.80;;;3.63;;
40449;SDS011;41787;53.570;10.032;2023-02-01T11:32:13;24.52;;;4.10;;
40449;SDS011;41787;53.570;10.032;2023-02-01T11:37:09;23.33;;;3.42;;
40449;SDS011;41787;53.570;10.032;2023-02-01T11:39:40;22.58;;;3.33;;
40449;SDS011;41787;53.570;10.032;2023-02-01T11:42:13;16.05;;;2.63;;
40449;SDS011;41787;53.570;10.032;2023-02-01T11:44:41;22.83;;;3.60;;
40449;SDS011;41787;53.570;10.032;2023-02-01T11:47:18;23.85;;;3.22;;
40449;SDS011;41787;53.570;10.032;2023-02-01T11:49:44;28.48;;;4.35;;
40449;SDS011;41787;53.570;10.032;2023-02-01T11:57:34;19.63;;;2.50;;
40449;SDS011;41787;53.570;10.032;2023-02-01T12:08:15;10.45;;;2.17;;
40449;SDS011;41787;53.570;10.032;2023-02-01T12:10:55;15.38;;;2.13;;
40449;SDS011;41787;53.570;10.032;2023-02-01T12:13:27;12.40;;;2.13;;
40449;SDS011;41787;53.570;10.032;2023-02-01T12:16:02;8.95;;;2.05;;
40449;SDS011;41787;53.570;10.032;2023-02-01T12:18:42;20.05;;;2.92;;
40449;SDS011;41787;53.570;10.032;2023-02-01T12:21:33;19.85;;;2.88;;
40449;SDS011;41787;53.570;10.032;2023-02-01T12:24:05;22.00;;;2.88;;
40449;SDS011;41787;53.570;10.032;2023-02-01T12:26:46;16.23;;;2.83;;
40449;SDS011;41787;53.570;10.032;2023-02-01T12:36:44;10.20;;;1.67;;
40449;SDS011;41787;53.570;10.032;2023-02-01T12:44:18;9.63;;;1.67;;
40449;SDS011;41787;53.570;10.032;2023-02-01T12:46:52;6.68;;;2.63;;
40449;SDS011;41787;53.570;10.032;2023-02-01T12:49:22;5.90;;;1.02;;
40449;SDS011;41787;53.570;10.032;2023-02-01T12:52:03;5.63;;;1.40;;
40449;SDS011;41787;53.570;10.032;2023-02-01T12:54:39;6.40;;;1.08;;
40449;SDS011;41787;53.570;10.032;2023-02-01T12:57:09;4.43;;;1.20;;
40449;SDS011;41787;53.570;10.032;2023-02-01T12:59:38;2.28;;;0.80;;
40449;SDS011;41787;53.570;10.032;2023-02-01T13:02:11;9.20;;;1.20;;
40449;SDS011;41787;53.570;10.032;2023-02-01T13:07:14;11.07;;;1.77;;
40449;SDS011;41787;53.570;10.032;2023-02-01T13:09:47;4.72;;;0.88;;
40449;SDS011;41787;53.570;10.032;2023-02-01T13:12:16;4.93;;;1.30;;
40449;SDS011;41787;53.570;10.032;2023-02-01T13:14:44;4.28;;;0.98;;
40449;SDS011;41787;53.570;10.032;2023-02-01T13:17:16;2.13;;;0.80;;
40449;SDS011;41787;53.570;10.032;2023-02-01T13:22:34;3.58;;;1.10;;
40449;SDS011;41787;53.570;10.032;2023-02-01T13:25:03;1.52;;;0.68;;
40449;SDS011;41787;53.570;10.032;2023-02-01T13:27:30;1.55;;;0.75;;
40449;SDS011;41787;53.570;10.032;2023-02-01T13:29:58;3.17;;;1.10;;
40449;SDS011;41787;53.570;10.032;2023-02-01T13:32:36;4.27;;;0.90;;
40449;SDS011;41787;53.570;10.032;2023-02-01T13:42:54;6.03;;;1.00;;
40449;SDS011;41787;53.570;10.032;2023-02-01T13:45:22;4.45;;;1.30;;
40449;SDS011;41787;53.570;10.032;2023-02-01T13:47:49;3.95;;;0.95;;
40449;SDS011;41787;53.570;10.032;2023-02-01T13:50:30;2.60;;;0.52;;
40449;SDS011;41787;53.570;10.032;2023-02-01T13:55:37;1.63;;;0.90;;
40449;SDS011;41787;53.570;10.032;2023-02-01T14:00:36;5.20;;;0.73;;
40449;SDS011;41787;53.570;10.032;2023-02-01T14:03:15;4.50;;;0.77;;
40449;SDS011;41787;53.570;10.032;2023-02-01T14:08:20;3.93;;;0.90;;
40449;SDS011;41787;53.570;10.032;2023-02-01T14:10:48;7.35;;;1.70;;
40449;SDS011;41787;53.570;10.032;2023-02-01T14:13:23;6.70;;;0.98;;
40449;SDS011;41787;53.570;10.032;2023-02-01T14:19:18;2.85;;;0.82;;
40449;SDS011;41787;53.570;10.032;2023-02-01T14:21:30;6.82;;;1.08;;
40449;SDS011;41787;53.570;10.032;2023-02-01T14:24:00;5.60;;;1.02;;
40449;SDS011;41787;53.570;10.032;2023-02-01T14:29:02;5.07;;;0.82;;
40449;SDS011;41787;53.570;10.032;2023-02-01T14:31:31;9.18;;;1.63;;
40449;SDS011;41787;53.570;10.032;2023-02-01T14:33:58;12.55;;;2.03;;
40449;SDS011;41787;53.570;10.032;2023-02-01T14:36:24;7.20;;;1.48;;
40449;SDS011;41787;53.570;10.032;2023-02-01T14:38:53;10.25;;;1.75;;
40449;SDS011;41787;53.570;10.032;2023-02-01T14:44:13;11.32;;;1.73;;
40449;SDS011;41787;53.570;10.032;2023-02-01T14:49:23;25.23;;;2.78;;
40449;SDS011;41787;53.570;10.032;2023-02-01T14:51:50;9.82;;;1.67;;
40449;SDS011;41787;53.570;10.032;2023-02-01T14:54:22;11.30;;;2.42;;
40449;SDS011;41787;53.570;10.032;2023-02-01T14:56:48;7.57;;;1.13;;
40449;SDS011;41787;53.570;10.032;2023-02-01T14:59:16;10.00;;;1.48;;
40449;SDS011;41787;53.570;10.032;2023-02-01T15:01:49;9.68;;;1.52;;
40449;SDS011;41787;53.570;10.032;2023-02-01T15:04:16;13.30;;;1.98;;
40449;SDS011;41787;53.570;10.032;2023-02-01T15:07:03;11.25;;;2.58;;
40449;SDS011;41787;53.570;10.032;2023-02-01T15:11:59;14.27;;;2.10;;
40449;SDS011;41787;53.570;10.032;2023-02-01T15:14:35;15.30;;;2.85;;
40449;SDS011;41787;53.570;10.032;2023-02-01T15:17:15;15.82;;;2.53;;
40449;SDS011;41787;53.570;10.032;2023-02-01T15:19:53;23.48;;;4.03;;
40449;SDS011;41787;53.570;10.032;2023-02-01T15:22:19;19.98;;;2.10;;
40449;SDS011;41787;53.570;10.032;2023-02-01T15:24:51;15.20;;;2.72;;
40449;SDS011;41787;53.570;10.032;2023-02-01T15:27:20;16.58;;;1.90;;
40449;SDS011;41787;53.570;10.032;2023-02-01T15:29:46;17.02;;;2.10;;
40449;SDS011;41787;53.570;10.032;2023-02-01T15:32:31;15.50;;;2.47;;
40449;SDS011;41787;53.570;10.032;2023-02-01T15:34:57;12.05;;;2.30;;
40449;SDS011;41787;53.570;10.032;2023-02-01T15:37:25;14.25;;;2.40;;
40449;SDS011;41787;53.570;10.032;2023-02-01T15:42:40;11.82;;;2.22;;
40449;SDS011;41787;53.570;10.032;2023-02-01T15:45:20;19.02;;;3.00;;
40449;SDS011;41787;53.570;10.032;2023-02-01T15:47:47;19.45;;;3.17;;
40449;SDS011;41787;53.570;10.032;2023-02-01T15:50:20;23.42;;;5.40;;
40449;SDS011;41787;53.570;10.032;2023-02-01T15:52:48;10.68;;;2.20;;
40449;SDS011;41787;53.570;10.032;2023-02-01T15:55:36;17.73;;;2.03;;
40449;SDS011;41787;53.570;10.032;2023-02-01T15:58:18;14.98;;;2.17;;
40449;SDS011;41787;53.570;10.032;2023-02-01T16:06:02;15.27;;;3.70;;
40449;SDS011;41787;53.570;10.032;2023-02-01T16:08:29;13.38;;;3.17;;
40449;SDS011;41787;53.570;10.032;2023-02-01T16:11:01;25.88;;;2.92;;
40449;SDS011;41787;53.570;10.032;2023-02-01T16:13:27;18.80;;;2.55;;
40449;SDS011;41787;53.570;10.032;2023-02-01T16:15:56;20.67;;;3.47;;
40449;SDS011;41787;53.570;10.032;2023-02-01T16:18:22;21.92;;;4.15;;
40449;SDS011;41787;53.570;10.032;2023-02-01T16:20:48;27.10;;;3.80;;
40449;SDS011;41787;53.570;10.032;2023-02-01T16:23:14;18.75;;;3.15;;
40449;SDS011;41787;53.570;10.032;2023-02-01T16:25:43;24.80;;;3.55;;
40449;SDS011;41787;53.570;10.032;2023-02-01T16:28:09;26.80;;;3.70;;
40449;SDS011;41787;53.570;10.032;2023-02-01T16:30:35;21.48;;;2.70;;
40449;SDS011;41787;53.570;10.032;2023-02-01T16:33:01;25.40;;;4.15;;